sensor_id;sensor_type;location;lat;lon;timestamp;P1;durP1;ratioP1;P2;durP2;ratioP2
40609;SDS011;26316;55.976;37.140;2023-02-28T00:00:09;5.93;;;4.95;;
40609;SDS011;26316;55.976;37.140;2023-02-28T00:02:36;5.15;;;4.65;;
40609;SDS011;26316;55.976;37.140;2023-02-28T00:05:03;5.22;;;4.72;;
40609;SDS011;26316;55.976;37.140;2023-02-28T00:07:30;4.57;;;4.13;;
40609;SDS011;26316;55.976;37.140;2023-02-28T00:09:56;4.93;;;4.53;;
40609;SDS011;26316;55.976;37.140;2023-02-28T00:12:22;4.45;;;4.05;;
40609;SDS011;26316;55.976;37.140;2023-02-28T00:14:48;5.10;;;4.60;;
40609;SDS011;26316;55.976;37.140;2023-02-28T00:17:14;5.25;;;4.72;;
40609;SDS011;26316;55.976;37.140;2023-02-28T00:19:39;4.55;;;4.15;;
40609;SDS011;26316;55.976;37.140;2023-02-28T00:22:05;5.13;;;4.65;;
40609;SDS011;26316;55.976;37.140;2023-02-28T00:24:31;5.55;;;4.13;;
40609;SDS011;26316;55.976;37.140;2023-02-28T00:26:57;4.63;;;4.22;;
40609;SDS011;26316;55.976;37.140;2023-02-28T00:29:22;5.35;;;4.80;;
40609;SDS011;26316;55.976;37.140;2023-02-28T00:31:48;5.03;;;4.53;;
40609;SDS011;26316;55.976;37.140;2023-02-28T00:34:14;4.80;;;4.40;;
40609;SDS011;26316;55.976;37.140;2023-02-28T00:36:39;5.35;;;4.85;;
40609;SDS011;26316;55.976;37.140;2023-02-28T00:39:08;4.82;;;4.43;;
40609;SDS011;26316;55.976;37.140;2023-02-28T00:41:34;5.28;;;4.78;;
40609;SDS011;26316;55.976;37.140;2023-02-28T00:44:00;5.32;;;4.82;;
40609;SDS011;26316;55.976;37.140;2023-02-28T00:46:25;5.03;;;4.60;;
40609;SDS011;26316;55.976;37.140;2023-02-28T00:48:51;5.10;;;4.70;;
40609;SDS011;26316;55.976;37.140;2023-02-28T00:51:17;5.28;;;4.78;;
40609;SDS011;26316;55.976;37.140;2023-02-28T00:53:42;5.00;;;4.60;;
40609;SDS011;26316;55.976;37.140;2023-02-28T00:56:08;5.15;;;4.70;;
40609;SDS011;26316;55.976;37.140;2023-02-28T00:58:33;5.53;;;5.03;;
40609;SDS011;26316;55.976;37.140;2023-02-28T01:00:59;4.90;;;4.50;;
40609;SDS011;26316;55.976;37.140;2023-02-28T01:03:25;5.22;;;4.82;;
40609;SDS011;26316;55.976;37.140;2023-02-28T01:05:51;5.13;;;4.63;;
40609;SDS011;26316;55.976;37.140;2023-02-28T01:08:18;5.15;;;4.65;;
40609;SDS011;26316;55.976;37.140;2023-02-28T01:10:44;4.97;;;4.57;;
40609;SDS011;26316;55.976;37.140;2023-02-28T01:13:11;5.03;;;4.63;;
40609;SDS011;26316;55.976;37.140;2023-02-28T01:15:38;5.10;;;4.70;;
40609;SDS011;26316;55.976;37.140;2023-02-28T01:18:07;5.03;;;4.57;;
40609;SDS011;26316;55.976;37.140;2023-02-28T01:20:33;4.78;;;4.38;;
40609;SDS011;26316;55.976;37.140;2023-02-28T01:23:02;4.60;;;4.30;;
40609;SDS011;26316;55.976;37.140;2023-02-28T01:25:27;5.03;;;4.63;;
40609;SDS011;26316;55.976;37.140;2023-02-28T01:27:53;5.03;;;4.63;;
40609;SDS011;26316;55.976;37.140;2023-02-28T01:30:19;5.28;;;4.82;;
40609;SDS011;26316;55.976;37.140;2023-02-28T01:32:46;4.57;;;4.18;;
40609;SDS011;26316;55.976;37.140;2023-02-28T01:35:11;4.60;;;4.22;;
40609;SDS011;26316;55.976;37.140;2023-02-28T01:37:37;4.80;;;4.40;;
40609;SDS011;26316;55.976;37.140;2023-02-28T01:40:03;4.72;;;4.32;;
40609;SDS011;26316;55.976;37.140;2023-02-28T01:42:29;5.20;;;4.50;;
40609;SDS011;26316;55.976;37.140;2023-02-28T01:47:46;4.22;;;3.92;;
40609;SDS011;26316;55.976;37.140;2023-02-28T01:50:17;4.80;;;4.40;;
40609;SDS011;26316;55.976;37.140;2023-02-28T01:52:45;4.13;;;3.83;;
40609;SDS011;26316;55.976;37.140;2023-02-28T01:55:12;5.07;;;4.60;;
40609;SDS011;26316;55.976;37.140;2023-02-28T01:57:40;4.50;;;3.97;;
40609;SDS011;26316;55.976;37.140;2023-02-28T02:00:13;4.38;;;4.07;;
40609;SDS011;26316;55.976;37.140;2023-02-28T02:02:46;4.53;;;4.13;;
40609;SDS011;26316;55.976;37.140;2023-02-28T02:05:16;4.28;;;3.97;;
40609;SDS011;26316;55.976;37.140;2023-02-28T02:07:42;4.38;;;4.00;;
40609;SDS011;26316;55.976;37.140;2023-02-28T02:25:06;5.05;;;4.65;;
40609;SDS011;26316;55.976;37.140;2023-02-28T02:27:24;5.18;;;4.68;;
40609;SDS011;26316;55.976;37.140;2023-02-28T02:38:08;4.13;;;3.83;;
40609;SDS011;26316;55.976;37.140;2023-02-28T02:43:38;4.72;;;4.20;;
40609;SDS011;26316;55.976;37.140;2023-02-28T02:46:08;5.05;;;4.55;;
40609;SDS011;26316;55.976;37.140;2023-02-28T02:48:38;3.95;;;3.65;;
40609;SDS011;26316;55.976;37.140;2023-02-28T02:51:13;3.97;;;3.67;;
40609;SDS011;26316;55.976;37.140;2023-02-28T02:53:48;4.32;;;3.92;;
40609;SDS011;26316;55.976;37.140;2023-02-28T02:56:17;4.25;;;3.92;;
40609;SDS011;26316;55.976;37.140;2023-02-28T02:58:45;4.30;;;4.00;;
40609;SDS011;26316;55.976;37.140;2023-02-28T03:01:14;3.83;;;3.53;;
40609;SDS011;26316;55.976;37.140;2023-02-28T03:03:59;4.15;;;3.80;;
40609;SDS011;26316;55.976;37.140;2023-02-28T03:06:27;3.90;;;3.60;;
40609;SDS011;26316;55.976;37.140;2023-02-28T03:08:52;4.20;;;3.90;;
40609;SDS011;26316;55.976;37.140;2023-02-28T03:11:18;4.20;;;3.90;;
40609;SDS011;26316;55.976;37.140;2023-02-28T03:13:59;3.92;;;3.58;;
40609;SDS011;26316;55.976;37.140;2023-02-28T03:25:17;4.63;;;4.22;;
40609;SDS011;26316;55.976;37.140;2023-02-28T03:28:00;4.32;;;4.00;;
40609;SDS011;26316;55.976;37.140;2023-02-28T03:30:39;4.13;;;3.72;;
40609;SDS011;26316;55.976;37.140;2023-02-28T03:33:10;4.90;;;4.50;;
40609;SDS011;26316;55.976;37.140;2023-02-28T03:35:48;4.70;;;4.40;;
40609;SDS011;26316;55.976;37.140;2023-02-28T03:38:33;4.47;;;4.07;;
40609;SDS011;26316;55.976;37.140;2023-02-28T03:41:18;4.45;;;4.07;;
40609;SDS011;26316;55.976;37.140;2023-02-28T03:43:55;4.75;;;4.03;;
40609;SDS011;26316;55.976;37.140;2023-02-28T03:46:24;4.65;;;4.35;;
40609;SDS011;26316;55.976;37.140;2023-02-28T03:48:52;4.30;;;4.00;;
40609;SDS011;26316;55.976;37.140;2023-02-28T03:51:29;4.70;;;4.30;;
40609;SDS011;26316;55.976;37.140;2023-02-28T03:53:59;4.05;;;3.75;;
40609;SDS011;26316;55.976;37.140;2023-02-28T03:56:34;3.80;;;3.50;;
40609;SDS011;26316;55.976;37.140;2023-02-28T03:59:08;4.50;;;4.10;;
40609;SDS011;26316;55.976;37.140;2023-02-28T04:01:41;4.03;;;3.65;;
40609;SDS011;26316;55.976;37.140;2023-02-28T04:04:08;4.03;;;3.72;;
40609;SDS011;26316;55.976;37.140;2023-02-28T04:06:35;3.30;;;3.10;;
40609;SDS011;26316;55.976;37.140;2023-02-28T04:09:01;3.38;;;3.17;;
40609;SDS011;26316;55.976;37.140;2023-02-28T04:11:36;3.35;;;3.15;;
40609;SDS011;26316;55.976;37.140;2023-02-28T04:14:03;4.30;;;4.00;;
40609;SDS011;26316;55.976;37.140;2023-02-28T04:16:30;3.45;;;3.25;;
40609;SDS011;26316;55.976;37.140;2023-02-28T04:18:56;3.38;;;3.17;;
40609;SDS011;26316;55.976;37.140;2023-02-28T04:21:29;3.97;;;3.50;;
40609;SDS011;26316;55.976;37.140;2023-02-28T04:23:55;3.40;;;3.20;;
40609;SDS011;26316;55.976;37.140;2023-02-28T04:26:35;3.60;;;3.30;;
40609;SDS011;26316;55.976;37.140;2023-02-28T04:29:03;3.88;;;3.58;;
40609;SDS011;26316;55.976;37.140;2023-02-28T04:31:29;3.72;;;3.42;;
40609;SDS011;26316;55.976;37.140;2023-02-28T04:33:55;4.13;;;3.80;;
40609;SDS011;26316;55.976;37.140;2023-02-28T04:36:21;4.35;;;3.92;;
40609;SDS011;26316;55.976;37.140;2023-02-28T04:38:48;4.03;;;3.72;;
40609;SDS011;26316;55.976;37.140;2023-02-28T04:41:14;4.43;;;4.13;;
40609;SDS011;26316;55.976;37.140;2023-02-28T04:43:40;4.18;;;3.88;;
40609;SDS011;26316;55.976;37.140;2023-02-28T04:46:06;4.43;;;4.07;;
40609;SDS011;26316;55.976;37.140;2023-02-28T04:48:33;4.30;;;3.90;;
40609;SDS011;26316;55.976;37.140;2023-02-28T04:51:04;4.50;;;4.03;;
40609;SDS011;26316;55.976;37.140;2023-02-28T04:53:35;4.07;;;3.78;;
40609;SDS011;26316;55.976;37.140;2023-02-28T04:56:01;4.30;;;4.00;;
40609;SDS011;26316;55.976;37.140;2023-02-28T04:58:27;3.65;;;3.35;;
40609;SDS011;26316;55.976;37.140;2023-02-28T05:00:53;4.10;;;3.75;;
40609;SDS011;26316;55.976;37.140;2023-02-28T05:03:19;4.35;;;4.05;;
40609;SDS011;26316;55.976;37.140;2023-02-28T05:05:47;3.83;;;3.53;;
40609;SDS011;26316;55.976;37.140;2023-02-28T05:08:13;4.85;;;4.38;;
40609;SDS011;26316;55.976;37.140;2023-02-28T05:10:39;4.22;;;3.88;;
40609;SDS011;26316;55.976;37.140;2023-02-28T05:13:05;4.30;;;3.95;;
40609;SDS011;26316;55.976;37.140;2023-02-28T05:15:30;4.20;;;3.90;;
40609;SDS011;26316;55.976;37.140;2023-02-28T05:17:56;4.70;;;4.30;;
40609;SDS011;26316;55.976;37.140;2023-02-28T05:20:21;4.65;;;4.25;;
40609;SDS011;26316;55.976;37.140;2023-02-28T05:22:47;5.72;;;5.20;;
40609;SDS011;26316;55.976;37.140;2023-02-28T05:25:19;5.65;;;4.85;;
40609;SDS011;26316;55.976;37.140;2023-02-28T05:27:47;5.45;;;4.90;;
40609;SDS011;26316;55.976;37.140;2023-02-28T05:30:14;5.78;;;4.88;;
40609;SDS011;26316;55.976;37.140;2023-02-28T05:32:40;4.93;;;4.43;;
40609;SDS011;26316;55.976;37.140;2023-02-28T05:35:09;4.07;;;3.77;;
40609;SDS011;26316;55.976;37.140;2023-02-28T05:37:37;4.78;;;4.35;;
40609;SDS011;26316;55.976;37.140;2023-02-28T05:40:03;4.75;;;4.32;;
40609;SDS011;26316;55.976;37.140;2023-02-28T05:42:36;4.47;;;4.07;;
40609;SDS011;26316;55.976;37.140;2023-02-28T05:45:03;4.68;;;4.28;;
40609;SDS011;26316;55.976;37.140;2023-02-28T05:47:30;4.65;;;4.25;;
40609;SDS011;26316;55.976;37.140;2023-02-28T05:49:55;4.68;;;4.28;;
40609;SDS011;26316;55.976;37.140;2023-02-28T05:52:21;4.78;;;4.38;;
40609;SDS011;26316;55.976;37.140;2023-02-28T05:54:47;5.28;;;4.88;;
40609;SDS011;26316;55.976;37.140;2023-02-28T05:57:13;4.20;;;3.88;;
40609;SDS011;26316;55.976;37.140;2023-02-28T05:59:38;4.57;;;4.28;;
40609;SDS011;26316;55.976;37.140;2023-02-28T06:02:12;4.35;;;4.00;;
40609;SDS011;26316;55.976;37.140;2023-02-28T06:04:38;4.50;;;4.10;;
40609;SDS011;26316;55.976;37.140;2023-02-28T06:07:06;4.50;;;4.10;;
40609;SDS011;26316;55.976;37.140;2023-02-28T06:09:31;3.95;;;3.67;;
40609;SDS011;26316;55.976;37.140;2023-02-28T06:11:58;4.13;;;3.72;;
40609;SDS011;26316;55.976;37.140;2023-02-28T06:14:24;4.53;;;4.07;;
40609;SDS011;26316;55.976;37.140;2023-02-28T06:16:50;3.90;;;3.60;;
40609;SDS011;26316;55.976;37.140;2023-02-28T06:19:15;6.53;;;4.38;;
40609;SDS011;26316;55.976;37.140;2023-02-28T06:21:41;4.47;;;4.07;;
40609;SDS011;26316;55.976;37.140;2023-02-28T06:24:07;4.65;;;4.25;;
40609;SDS011;26316;55.976;37.140;2023-02-28T06:26:33;4.57;;;4.28;;
40609;SDS011;26316;55.976;37.140;2023-02-28T06:28:58;4.40;;;4.00;;
40609;SDS011;26316;55.976;37.140;2023-02-28T06:31:25;4.72;;;4.32;;
40609;SDS011;26316;55.976;37.140;2023-02-28T06:33:51;4.18;;;3.88;;
40609;SDS011;26316;55.976;37.140;2023-02-28T06:36:17;3.92;;;3.63;;
40609;SDS011;26316;55.976;37.140;2023-02-28T06:38:43;4.15;;;3.85;;
40609;SDS011;26316;55.976;37.140;2023-02-28T06:41:09;4.28;;;3.97;;
40609;SDS011;26316;55.976;37.140;2023-02-28T06:43:36;5.03;;;4.30;;
40609;SDS011;26316;55.976;37.140;2023-02-28T06:46:05;4.07;;;3.78;;
40609;SDS011;26316;55.976;37.140;2023-02-28T06:48:32;4.13;;;3.55;;
40609;SDS011;26316;55.976;37.140;2023-02-28T06:53:55;4.18;;;3.78;;
40609;SDS011;26316;55.976;37.140;2023-02-28T06:56:21;4.65;;;4.25;;
40609;SDS011;26316;55.976;37.140;2023-02-28T06:58:48;4.57;;;4.18;;
40609;SDS011;26316;55.976;37.140;2023-02-28T07:01:14;5.03;;;4.32;;
40609;SDS011;26316;55.976;37.140;2023-02-28T07:03:40;5.10;;;4.60;;
40609;SDS011;26316;55.976;37.140;2023-02-28T07:06:06;5.05;;;4.65;;
40609;SDS011;26316;55.976;37.140;2023-02-28T07:08:32;4.95;;;4.38;;
40609;SDS011;26316;55.976;37.140;2023-02-28T07:10:58;4.70;;;4.32;;
40609;SDS011;26316;55.976;37.140;2023-02-28T07:13:24;5.20;;;4.28;;
40609;SDS011;26316;55.976;37.140;2023-02-28T07:16:09;4.55;;;4.15;;
40609;SDS011;26316;55.976;37.140;2023-02-28T07:18:36;4.20;;;3.90;;
40609;SDS011;26316;55.976;37.140;2023-02-28T07:21:03;4.30;;;4.00;;
40609;SDS011;26316;55.976;37.140;2023-02-28T07:23:33;4.53;;;4.13;;
40609;SDS011;26316;55.976;37.140;2023-02-28T07:25:59;4.22;;;3.83;;
40609;SDS011;26316;55.976;37.140;2023-02-28T07:28:25;5.07;;;4.57;;
40609;SDS011;26316;55.976;37.140;2023-02-28T07:30:51;4.72;;;4.20;;
40609;SDS011;26316;55.976;37.140;2023-02-28T07:33:16;4.60;;;4.13;;
40609;SDS011;26316;55.976;37.140;2023-02-28T07:35:43;4.47;;;4.05;;
40609;SDS011;26316;55.976;37.140;2023-02-28T07:38:09;4.00;;;3.70;;
40609;SDS011;26316;55.976;37.140;2023-02-28T07:40:34;4.85;;;3.80;;
40609;SDS011;26316;55.976;37.140;2023-02-28T07:43:01;4.65;;;3.72;;
40609;SDS011;26316;55.976;37.140;2023-02-28T07:45:27;4.22;;;3.83;;
40609;SDS011;26316;55.976;37.140;2023-02-28T07:47:54;3.92;;;3.63;;
40609;SDS011;26316;55.976;37.140;2023-02-28T07:50:20;4.20;;;3.90;;
40609;SDS011;26316;55.976;37.140;2023-02-28T07:52:46;4.22;;;3.88;;
40609;SDS011;26316;55.976;37.140;2023-02-28T07:55:11;5.45;;;3.85;;
40609;SDS011;26316;55.976;37.140;2023-02-28T07:57:39;4.47;;;4.07;;
40609;SDS011;26316;55.976;37.140;2023-02-28T08:00:06;4.40;;;4.00;;
40609;SDS011;26316;55.976;37.140;2023-02-28T08:02:39;4.25;;;3.90;;
40609;SDS011;26316;55.976;37.140;2023-02-28T08:05:06;3.22;;;3.03;;
40609;SDS011;26316;55.976;37.140;2023-02-28T08:07:32;4.10;;;3.78;;
40609;SDS011;26316;55.976;37.140;2023-02-28T08:09:58;3.97;;;3.65;;
40609;SDS011;26316;55.976;37.140;2023-02-28T08:12:24;4.25;;;3.10;;
40609;SDS011;26316;55.976;37.140;2023-02-28T08:14:50;3.88;;;3.50;;
40609;SDS011;26316;55.976;37.140;2023-02-28T08:17:16;3.63;;;3.33;;
40609;SDS011;26316;55.976;37.140;2023-02-28T08:19:41;3.45;;;3.15;;
40609;SDS011;26316;55.976;37.140;2023-02-28T08:22:07;3.22;;;2.92;;
40609;SDS011;26316;55.976;37.140;2023-02-28T08:24:32;3.97;;;3.55;;
40609;SDS011;26316;55.976;37.140;2023-02-28T08:26:58;4.32;;;3.67;;
40609;SDS011;26316;55.976;37.140;2023-02-28T08:29:24;3.75;;;3.17;;
40609;SDS011;26316;55.976;37.140;2023-02-28T08:31:50;3.88;;;3.50;;
40609;SDS011;26316;55.976;37.140;2023-02-28T08:34:15;3.58;;;3.22;;
40609;SDS011;26316;55.976;37.140;2023-02-28T08:36:41;3.83;;;3.42;;
40609;SDS011;26316;55.976;37.140;2023-02-28T08:39:08;3.42;;;3.13;;
40609;SDS011;26316;55.976;37.140;2023-02-28T08:41:34;4.57;;;3.00;;
40609;SDS011;26316;55.976;37.140;2023-02-28T08:44:00;3.67;;;3.38;;
40609;SDS011;26316;55.976;37.140;2023-02-28T08:46:26;5.47;;;3.58;;
40609;SDS011;26316;55.976;37.140;2023-02-28T08:48:52;4.25;;;3.85;;
40609;SDS011;26316;55.976;37.140;2023-02-28T08:51:19;3.90;;;3.42;;
40609;SDS011;26316;55.976;37.140;2023-02-28T08:53:51;4.65;;;3.70;;
40609;SDS011;26316;55.976;37.140;2023-02-28T08:56:20;4.53;;;4.13;;
40609;SDS011;26316;55.976;37.140;2023-02-28T08:58:47;4.13;;;3.58;;
40609;SDS011;26316;55.976;37.140;2023-02-28T09:01:35;4.53;;;4.00;;
40609;SDS011;26316;55.976;37.140;2023-02-28T09:04:01;4.70;;;3.70;;
40609;SDS011;26316;55.976;37.140;2023-02-28T09:06:27;3.95;;;3.53;;
40609;SDS011;26316;55.976;37.140;2023-02-28T09:08:56;5.38;;;4.20;;
40609;SDS011;26316;55.976;37.140;2023-02-28T09:11:23;4.82;;;3.75;;
40609;SDS011;26316;55.976;37.140;2023-02-28T09:13:49;5.18;;;3.88;;
40609;SDS011;26316;55.976;37.140;2023-02-28T09:16:15;4.10;;;3.63;;
40609;SDS011;26316;55.976;37.140;2023-02-28T09:18:41;3.63;;;3.33;;
40609;SDS011;26316;55.976;37.140;2023-02-28T09:21:07;3.38;;;3.08;;
40609;SDS011;26316;55.976;37.140;2023-02-28T09:23:35;3.42;;;3.22;;
40609;SDS011;26316;55.976;37.140;2023-02-28T09:26:03;3.47;;;3.28;;
40609;SDS011;26316;55.976;37.140;2023-02-28T09:28:29;3.92;;;3.53;;
40609;SDS011;26316;55.976;37.140;2023-02-28T09:30:55;3.28;;;2.97;;
40609;SDS011;26316;55.976;37.140;2023-02-28T09:33:22;3.70;;;3.35;;
40609;SDS011;26316;55.976;37.140;2023-02-28T09:35:56;4.32;;;3.67;;
40609;SDS011;26316;55.976;37.140;2023-02-28T09:38:23;3.30;;;3.03;;
40609;SDS011;26316;55.976;37.140;2023-02-28T09:40:56;4.28;;;3.50;;
40609;SDS011;26316;55.976;37.140;2023-02-28T09:43:44;3.58;;;3.28;;
40609;SDS011;26316;55.976;37.140;2023-02-28T09:48:52;3.92;;;3.63;;
40609;SDS011;26316;55.976;37.140;2023-02-28T09:51:30;4.05;;;3.60;;
40609;SDS011;26316;55.976;37.140;2023-02-28T09:53:59;3.95;;;3.35;;
40609;SDS011;26316;55.976;37.140;2023-02-28T09:56:25;3.63;;;3.33;;
40609;SDS011;26316;55.976;37.140;2023-02-28T09:59:50;4.47;;;3.90;;
40609;SDS011;26316;55.976;37.140;2023-02-28T10:04:57;3.60;;;3.30;;
40609;SDS011;26316;55.976;37.140;2023-02-28T10:13:02;3.45;;;3.15;;
40609;SDS011;26316;55.976;37.140;2023-02-28T10:15:31;3.35;;;3.05;;
40609;SDS011;26316;55.976;37.140;2023-02-28T10:18:02;2.90;;;2.72;;
40609;SDS011;26316;55.976;37.140;2023-02-28T10:20:31;3.75;;;3.45;;
40609;SDS011;26316;55.976;37.140;2023-02-28T10:23:04;3.87;;;3.37;;
40609;SDS011;26316;55.976;37.140;2023-02-28T10:25:38;5.35;;;3.80;;
40609;SDS011;26316;55.976;37.140;2023-02-28T10:30:36;4.03;;;3.30;;
40609;SDS011;26316;55.976;37.140;2023-02-28T10:33:04;4.30;;;3.90;;
40609;SDS011;26316;55.976;37.140;2023-02-28T10:35:31;4.35;;;3.95;;
40609;SDS011;26316;55.976;37.140;2023-02-28T10:38:05;4.53;;;3.30;;
40609;SDS011;26316;55.976;37.140;2023-02-28T10:40:41;5.07;;;3.75;;
40609;SDS011;26316;55.976;37.140;2023-02-28T10:43:21;4.07;;;3.67;;
40609;SDS011;26316;55.976;37.140;2023-02-28T10:46:03;3.80;;;3.42;;
40609;SDS011;26316;55.976;37.140;2023-02-28T10:48:57;4.40;;;3.97;;
40609;SDS011;26316;55.976;37.140;2023-02-28T10:51:25;5.78;;;3.95;;
40609;SDS011;26316;55.976;37.140;2023-02-28T10:53:51;6.45;;;3.83;;
40609;SDS011;26316;55.976;37.140;2023-02-28T10:56:23;4.43;;;3.70;;
40609;SDS011;26316;55.976;37.140;2023-02-28T11:01:34;4.32;;;3.75;;
40609;SDS011;26316;55.976;37.140;2023-02-28T11:04:20;6.63;;;4.25;;
40609;SDS011;26316;55.976;37.140;2023-02-28T11:06:59;6.35;;;4.50;;
40609;SDS011;26316;55.976;37.140;2023-02-28T11:12:00;4.95;;;4.00;;
40609;SDS011;26316;55.976;37.140;2023-02-28T11:14:31;6.30;;;4.55;;
40609;SDS011;26316;55.976;37.140;2023-02-28T11:17:14;5.38;;;4.85;;
40609;SDS011;26316;55.976;37.140;2023-02-28T11:19:45;4.80;;;4.32;;
40609;SDS011;26316;55.976;37.140;2023-02-28T11:22:17;4.93;;;4.53;;
40609;SDS011;26316;55.976;37.140;2023-02-28T11:24:45;4.93;;;4.40;;
40609;SDS011;26316;55.976;37.140;2023-02-28T11:27:26;5.65;;;4.30;;
40609;SDS011;26316;55.976;37.140;2023-02-28T11:30:22;4.72;;;4.25;;
40609;SDS011;26316;55.976;37.140;2023-02-28T11:32:48;4.35;;;3.95;;
40609;SDS011;26316;55.976;37.140;2023-02-28T11:35:21;5.60;;;4.03;;
40609;SDS011;26316;55.976;37.140;2023-02-28T11:37:50;5.15;;;4.28;;
40609;SDS011;26316;55.976;37.140;2023-02-28T11:40:20;4.55;;;4.15;;
40609;SDS011;26316;55.976;37.140;2023-02-28T11:49:02;4.57;;;4.18;;
40609;SDS011;26316;55.976;37.140;2023-02-28T11:54:35;5.05;;;4.30;;
40609;SDS011;26316;55.976;37.140;2023-02-28T11:57:33;4.60;;;4.07;;
40609;SDS011;26316;55.976;37.140;2023-02-28T12:02:39;4.38;;;3.97;;
40609;SDS011;26316;55.976;37.140;2023-02-28T12:27:25;3.83;;;3.50;;
40609;SDS011;26316;55.976;37.140;2023-02-28T12:30:02;3.80;;;3.50;;
40609;SDS011;26316;55.976;37.140;2023-02-28T12:32:51;4.30;;;3.92;;
40609;SDS011;26316;55.976;37.140;2023-02-28T12:35:28;3.65;;;3.38;;
40609;SDS011;26316;55.976;37.140;2023-02-28T12:38:18;3.85;;;3.55;;
40609;SDS011;26316;55.976;37.140;2023-02-28T12:40:55;3.40;;;3.10;;
40609;SDS011;26316;55.976;37.140;2023-02-28T12:43:27;2.83;;;2.60;;
40609;SDS011;26316;55.976;37.140;2023-02-28T12:48:39;2.92;;;2.67;;
40609;SDS011;26316;55.976;37.140;2023-02-28T12:51:11;2.75;;;2.55;;
40609;SDS011;26316;55.976;37.140;2023-02-28T12:56:14;3.05;;;2.85;;
40609;SDS011;26316;55.976;37.140;2023-02-28T13:01:42;3.17;;;2.92;;
40609;SDS011;26316;55.976;37.140;2023-02-28T13:06:59;3.17;;;2.90;;
40609;SDS011;26316;55.976;37.140;2023-02-28T13:09:51;3.42;;;3.10;;
40609;SDS011;26316;55.976;37.140;2023-02-28T13:12:21;3.53;;;2.83;;
40609;SDS011;26316;55.976;37.140;2023-02-28T13:14:48;3.10;;;2.80;;
40609;SDS011;26316;55.976;37.140;2023-02-28T13:17:19;3.63;;;3.33;;
40609;SDS011;26316;55.976;37.140;2023-02-28T13:19:46;4.55;;;3.17;;
40609;SDS011;26316;55.976;37.140;2023-02-28T13:27:47;6.30;;;3.45;;
40609;SDS011;26316;55.976;37.140;2023-02-28T13:33:33;3.90;;;3.60;;
40609;SDS011;26316;55.976;37.140;2023-02-28T13:46:31;3.83;;;3.53;;
40609;SDS011;26316;55.976;37.140;2023-02-28T13:49:17;3.55;;;3.22;;
40609;SDS011;26316;55.976;37.140;2023-02-28T14:03:14;3.88;;;3.17;;
40609;SDS011;26316;55.976;37.140;2023-02-28T14:08:52;3.42;;;3.22;;
40609;SDS011;26316;55.976;37.140;2023-02-28T14:11:32;4.00;;;3.60;;
40609;SDS011;26316;55.976;37.140;2023-02-28T14:14:00;3.72;;;3.42;;
40609;SDS011;26316;55.976;37.140;2023-02-28T14:16:28;4.40;;;3.97;;
40609;SDS011;26316;55.976;37.140;2023-02-28T14:19:23;4.18;;;3.55;;
40609;SDS011;26316;55.976;37.140;2023-02-28T14:22:03;3.88;;;3.53;;
40609;SDS011;26316;55.976;37.140;2023-02-28T14:28:03;5.30;;;3.63;;
40609;SDS011;26316;55.976;37.140;2023-02-28T14:33:38;4.15;;;3.75;;
40609;SDS011;26316;55.976;37.140;2023-02-28T14:36:18;4.07;;;3.60;;
40609;SDS011;26316;55.976;37.140;2023-02-28T14:38:49;3.72;;;3.42;;
40609;SDS011;26316;55.976;37.140;2023-02-28T14:41:23;3.42;;;3.20;;
40609;SDS011;26316;55.976;37.140;2023-02-28T14:43:50;3.80;;;3.15;;
40609;SDS011;26316;55.976;37.140;2023-02-28T14:46:17;3.33;;;2.95;;
40609;SDS011;26316;55.976;37.140;2023-02-28T14:48:47;3.60;;;3.30;;
40609;SDS011;26316;55.976;37.140;2023-02-28T14:51:18;3.17;;;2.88;;
40609;SDS011;26316;55.976;37.140;2023-02-28T14:53:47;3.80;;;3.47;;
40609;SDS011;26316;55.976;37.140;2023-02-28T14:56:20;3.15;;;2.88;;
40609;SDS011;26316;55.976;37.140;2023-02-28T14:58:52;3.38;;;3.08;;
40609;SDS011;26316;55.976;37.140;2023-02-28T15:01:20;2.92;;;2.67;;
40609;SDS011;26316;55.976;37.140;2023-02-28T15:03:47;3.00;;;2.70;;
40609;SDS011;26316;55.976;37.140;2023-02-28T15:06:14;3.00;;;2.80;;
40609;SDS011;26316;55.976;37.140;2023-02-28T15:08:46;3.40;;;3.10;;
40609;SDS011;26316;55.976;37.140;2023-02-28T15:11:15;3.38;;;2.67;;
40609;SDS011;26316;55.976;37.140;2023-02-28T15:13:53;2.92;;;2.72;;
40609;SDS011;26316;55.976;37.140;2023-02-28T15:16:41;3.25;;;2.95;;
40609;SDS011;26316;55.976;37.140;2023-02-28T15:19:18;3.35;;;2.95;;
40609;SDS011;26316;55.976;37.140;2023-02-28T15:21:47;2.78;;;2.63;;
40609;SDS011;26316;55.976;37.140;2023-02-28T15:26:57;3.22;;;2.92;;
40609;SDS011;26316;55.976;37.140;2023-02-28T15:29:24;2.50;;;2.30;;
40609;SDS011;26316;55.976;37.140;2023-02-28T15:32:02;2.75;;;2.50;;
40609;SDS011;26316;55.976;37.140;2023-02-28T15:34:37;3.38;;;2.83;;
40609;SDS011;26316;55.976;37.140;2023-02-28T15:39:51;2.90;;;2.70;;
40609;SDS011;26316;55.976;37.140;2023-02-28T15:42:19;3.28;;;2.97;;
40609;SDS011;26316;55.976;37.140;2023-02-28T15:44:46;3.75;;;3.42;;
40609;SDS011;26316;55.976;37.140;2023-02-28T15:47:16;5.60;;;3.70;;
40609;SDS011;26316;55.976;37.140;2023-02-28T15:50:08;3.63;;;3.33;;
40609;SDS011;26316;55.976;37.140;2023-02-28T15:52:38;3.83;;;3.40;;
40609;SDS011;26316;55.976;37.140;2023-02-28T15:55:15;3.65;;;3.28;;
40609;SDS011;26316;55.976;37.140;2023-02-28T15:57:44;5.45;;;3.67;;
40609;SDS011;26316;55.976;37.140;2023-02-28T16:00:12;5.40;;;4.40;;
40609;SDS011;26316;55.976;37.140;2023-02-28T16:02:44;3.85;;;3.45;;
40609;SDS011;26316;55.976;37.140;2023-02-28T16:07:36;4.65;;;3.55;;
40609;SDS011;26316;55.976;37.140;2023-02-28T16:10:08;3.53;;;3.22;;
40609;SDS011;26316;55.976;37.140;2023-02-28T16:12:36;3.83;;;2.70;;
40609;SDS011;26316;55.976;37.140;2023-02-28T16:15:05;3.05;;;2.55;;
40609;SDS011;26316;55.976;37.140;2023-02-28T16:17:42;3.45;;;3.15;;
40609;SDS011;26316;55.976;37.140;2023-02-28T16:20:16;3.17;;;2.88;;
40609;SDS011;26316;55.976;37.140;2023-02-28T16:22:43;4.07;;;2.53;;
40609;SDS011;26316;55.976;37.140;2023-02-28T16:25:11;2.92;;;2.67;;
40609;SDS011;26316;55.976;37.140;2023-02-28T16:27:40;2.80;;;2.60;;
40609;SDS011;26316;55.976;37.140;2023-02-28T16:30:06;3.00;;;2.70;;
40609;SDS011;26316;55.976;37.140;2023-02-28T16:32:36;3.03;;;2.67;;
40609;SDS011;26316;55.976;37.140;2023-02-28T16:35:02;2.70;;;2.50;;
40609;SDS011;26316;55.976;37.140;2023-02-28T16:37:28;2.90;;;2.50;;
40609;SDS011;26316;55.976;37.140;2023-02-28T16:39:54;2.15;;;2.03;;
40609;SDS011;26316;55.976;37.140;2023-02-28T16:42:23;2.85;;;2.28;;
40609;SDS011;26316;55.976;37.140;2023-02-28T16:44:51;2.50;;;2.30;;
40609;SDS011;26316;55.976;37.140;2023-02-28T16:47:17;2.17;;;1.98;;
40609;SDS011;26316;55.976;37.140;2023-02-28T16:49:43;2.40;;;2.13;;
40609;SDS011;26316;55.976;37.140;2023-02-28T16:52:09;2.40;;;2.20;;
40609;SDS011;26316;55.976;37.140;2023-02-28T16:54:37;1.80;;;1.70;;
40609;SDS011;26316;55.976;37.140;2023-02-28T16:57:04;2.38;;;1.75;;
40609;SDS011;26316;55.976;37.140;2023-02-28T16:59:30;1.73;;;1.58;;
40609;SDS011;26316;55.976;37.140;2023-02-28T17:01:56;1.92;;;1.60;;
40609;SDS011;26316;55.976;37.140;2023-02-28T17:04:23;1.70;;;1.50;;
40609;SDS011;26316;55.976;37.140;2023-02-28T17:06:52;2.17;;;1.93;;
40609;SDS011;26316;55.976;37.140;2023-02-28T17:09:21;2.03;;;1.40;;
40609;SDS011;26316;55.976;37.140;2023-02-28T17:11:48;2.08;;;1.50;;
40609;SDS011;26316;55.976;37.140;2023-02-28T17:14:14;1.40;;;1.30;;
40609;SDS011;26316;55.976;37.140;2023-02-28T17:16:40;1.83;;;1.17;;
40609;SDS011;26316;55.976;37.140;2023-02-28T17:19:10;1.70;;;1.30;;